KGCD

Grant Co Regional / Ogilvie Field Airport

John Day, Oregon, USA
METAR KGCD 170355Z AUTO 09006KT 10SM CLR 10/M01 A3032 RMK AO2 T01021015
Observed Flight Rules
Oct-17 @ 03:55 UTC (9 minutes ago) Visual Flight Rules
Wind Visibility Clouds
90° at 6 knots 10 miles
  • Clear skies
Temperatures Readings
Current 10°C / 50°F
Dewpoint -2°C / 28°F
Humidity 43%
Altimeter 30.32" Hg
Pressure 1027 hPa
Elevation 1127
METAR KGCD 170355Z AUTO 09006KT 10SM CLR 10/M01 A3032 RMK AO2 T01021015
Observed Flight Rules
Oct-17 @ 03:55 UTC
(9 minutes ago)
VFR
Wind Visibility
90° at 6 knots 10 miles
Clouds
  • Clear skies
Temperature Dewpoint
10°C / 50°F -2°C / 28°F
Humidity Altimeter Pressure
43% 30.32" Hg 1027 hPa